createdAt,value
2022-11-20T00:00:16.208Z,98395.35
2022-11-20T00:05:39.555Z,98385.39
2022-11-20T00:10:42.940Z,98383.33
2022-11-20T00:15:46.344Z,98388.80
2022-11-20T00:20:49.711Z,98387.30
2022-11-20T00:25:53.109Z,98384.33
2022-11-20T00:30:56.581Z,98385.80
2022-11-20T00:36:00.096Z,98389.13
2022-11-20T00:41:03.530Z,98388.01
2022-11-20T00:46:06.935Z,98383.61
2022-11-20T00:51:10.307Z,98381.67
2022-11-20T00:56:13.709Z,98384.00
2022-11-20T01:01:17.259Z,98373.95
2022-11-20T01:06:20.952Z,98368.92
2022-11-20T01:11:24.330Z,98361.56
2022-11-20T01:16:27.785Z,98365.77
2022-11-20T01:21:31.192Z,98359.60
2022-11-20T01:26:34.630Z,98358.92
2022-11-20T01:31:38.007Z,98352.72
2022-11-20T01:36:41.403Z,98354.13
2022-11-20T01:42:07.075Z,98343.36
2022-11-20T01:47:13.039Z,98340.58
2022-11-20T01:52:16.525Z,98332.30
2022-11-20T01:57:19.922Z,98329.58
2022-11-20T02:02:23.378Z,98325.55
2022-11-20T02:07:26.839Z,98330.42
2022-11-20T02:12:48.376Z,98329.55
2022-11-20T02:17:55.871Z,98335.09
2022-11-20T02:23:00.119Z,98341.14
2022-11-20T02:28:03.543Z,98351.05
2022-11-20T02:33:07.931Z,98350.98
2022-11-20T02:38:11.336Z,98359.21
2022-11-20T02:43:14.862Z,98361.41
2022-11-20T02:48:18.373Z,98358.73
2022-11-20T02:53:21.731Z,98354.21
2022-11-20T02:58:25.132Z,98357.20
2022-11-20T03:03:28.511Z,98356.14
2022-11-20T03:08:32.045Z,98358.73
2022-11-20T03:13:35.399Z,98356.88
2022-11-20T03:18:38.819Z,98359.05
2022-11-20T03:23:42.179Z,98354.19
2022-11-20T03:28:45.592Z,98350.05
2022-11-20T03:33:48.977Z,98350.33
2022-11-20T03:38:52.401Z,98352.31
2022-11-20T03:43:55.913Z,98349.31
2022-11-20T03:48:59.291Z,98346.30
2022-11-20T03:54:02.694Z,98345.30
2022-11-20T03:59:06.141Z,98345.66
2022-11-20T04:04:09.692Z,98342.89
2022-11-20T04:09:13.070Z,98350.02
2022-11-20T04:14:16.476Z,98354.77
2022-11-20T04:19:20.033Z,98346.23
2022-11-20T04:24:24.397Z,98342.05
2022-11-20T04:29:27.821Z,98338.17
2022-11-20T04:34:31.240Z,98327.30
2022-11-20T04:39:34.660Z,98316.45
2022-11-20T04:44:38.055Z,98311.36
2022-11-20T04:49:41.479Z,98311.03
2022-11-20T04:54:44.939Z,98306.34
2022-11-20T04:59:48.346Z,98300.08
2022-11-20T05:04:51.983Z,98293.31
2022-11-20T05:09:55.437Z,98288.92
2022-11-20T05:14:58.947Z,98285.55
2022-11-20T05:20:02.510Z,98284.88
2022-11-20T05:25:05.908Z,98275.43
2022-11-20T05:30:09.353Z,98272.16
2022-11-20T05:35:12.805Z,98267.41
2022-11-20T05:40:16.214Z,98270.27
2022-11-20T05:45:19.643Z,98270.21
2022-11-20T05:50:23.061Z,98275.70
2022-11-20T05:55:26.663Z,98273.50
2022-11-20T06:00:30.094Z,98267.25
2022-11-20T06:05:33.625Z,98275.46
2022-11-20T06:10:37.165Z,98276.50
2022-11-20T06:15:40.532Z,98270.44
2022-11-20T06:20:43.939Z,98277.79
2022-11-20T06:25:47.352Z,98279.45
2022-11-20T06:30:50.767Z,98279.39
2022-11-20T06:35:59.507Z,98281.17
2022-11-20T06:41:03.782Z,98284.66
2022-11-20T06:46:07.190Z,98282.73
2022-11-20T06:51:10.593Z,98273.10
2022-11-20T06:56:13.971Z,98266.23
2022-11-20T07:01:17.710Z,98255.61
2022-11-20T07:06:21.136Z,98251.48
2022-11-20T07:11:24.498Z,98250.81
2022-11-20T07:16:28.184Z,98253.82
2022-11-20T07:21:31.588Z,98254.14
2022-11-20T07:26:34.991Z,98250.05
2022-11-20T07:31:38.621Z,98247.98
2022-11-20T07:36:42.078Z,98251.38
2022-11-20T07:41:45.492Z,98249.52
2022-11-20T07:46:50.991Z,98251.76
2022-11-20T07:51:56.702Z,98253.73
2022-11-20T07:57:02.739Z,98250.08
2022-11-20T08:02:06.150Z,98252.97
2022-11-20T08:07:09.660Z,98256.06
2022-11-20T08:12:30.813Z,98255.77
2022-11-20T08:17:34.203Z,98260.88
2022-11-20T08:22:37.599Z,98260.30
2022-11-20T08:27:41.180Z,98260.96
2022-11-20T08:32:44.742Z,98266.63
2022-11-20T08:37:48.196Z,98268.23
2022-11-20T08:42:51.671Z,98273.96
2022-11-20T08:47:55.095Z,98274.02
2022-11-20T08:52:58.462Z,98273.69
2022-11-20T08:58:02.949Z,98276.13
2022-11-20T09:03:06.309Z,98274.32
2022-11-20T09:08:09.718Z,98266.54
2022-11-20T09:13:13.214Z,98266.54
2022-11-20T09:18:16.600Z,98263.40
2022-11-20T09:23:20.055Z,98259.55
2022-11-20T09:28:23.522Z,98254.84
2022-11-20T09:33:26.932Z,98256.22
2022-11-20T09:38:30.372Z,98248.29
2022-11-20T09:43:35.701Z,98257.01
2022-11-20T09:48:39.849Z,98244.67
2022-11-20T09:53:43.261Z,98245.69
2022-11-20T09:58:46.688Z,98241.62
2022-11-20T10:03:50.104Z,98233.98
2022-11-20T10:08:53.499Z,98227.45
2022-11-20T10:13:56.883Z,98230.94
2022-11-20T10:19:00.288Z,98221.39
2022-11-20T10:24:03.696Z,98215.74
2022-11-20T10:29:08.975Z,98206.36
2022-11-20T10:34:13.124Z,98205.10
2022-11-20T10:39:16.959Z,98202.59
2022-11-20T10:44:43.671Z,98192.50
2022-11-20T10:49:47.077Z,98188.38
2022-11-20T10:54:50.484Z,98179.23
2022-11-20T10:59:53.922Z,98178.33
2022-11-20T11:04:57.340Z,98171.08
2022-11-20T11:10:00.779Z,98170.28
2022-11-20T11:15:04.188Z,98170.78
2022-11-20T11:20:07.880Z,98170.92
2022-11-20T11:25:11.278Z,98168.08
2022-11-20T11:30:15.213Z,98165.16
2022-11-20T11:35:18.602Z,98167.17
2022-11-20T11:40:24.304Z,98170.14
2022-11-20T11:45:28.592Z,98164.46
2022-11-20T11:50:32.061Z,98164.52
2022-11-20T11:55:35.435Z,98149.65
2022-11-20T12:00:38.804Z,98127.71
2022-11-20T12:05:44.181Z,98119.13
2022-11-20T12:10:50.354Z,98115.86
2022-11-20T12:15:53.699Z,98123.10
2022-11-20T12:20:57.065Z,98130.89
2022-11-20T12:26:00.430Z,98126.20
2022-11-20T12:31:03.890Z,98119.67
2022-11-20T12:36:07.335Z,98111.35
2022-11-20T12:41:10.729Z,98098.17
2022-11-20T12:46:14.104Z,98082.29
2022-11-20T12:51:17.504Z,98068.43
2022-11-20T12:56:21.234Z,98055.08
2022-11-20T13:01:38.670Z,98054.81
2022-11-20T13:06:42.695Z,98052.63
2022-11-20T13:11:46.144Z,98056.48
2022-11-20T13:16:49.568Z,98049.55
2022-11-20T13:21:53.030Z,98042.09
2022-11-20T13:26:56.456Z,98045.56
2022-11-20T13:32:04.883Z,98044.84
2022-11-20T13:37:11.064Z,98041.89
2022-11-20T13:42:15.387Z,98033.29
2022-11-20T13:47:18.830Z,98025.13
2022-11-20T13:52:22.244Z,98027.38
2022-11-20T13:57:25.668Z,98022.70
2022-11-20T14:02:29.191Z,98022.05
2022-11-20T14:07:32.673Z,98020.36
2022-11-20T14:12:37.778Z,98020.45
2022-11-20T14:17:41.158Z,98020.77
2022-11-20T14:22:44.568Z,98017.71
2022-11-20T14:27:48.007Z,98009.01
2022-11-20T14:32:51.382Z,98001.83
2022-11-20T14:37:54.812Z,98001.77
2022-11-20T14:42:58.287Z,97999.69
2022-11-20T14:48:01.679Z,97999.30
2022-11-20T14:53:05.112Z,98008.28
2022-11-20T14:58:08.492Z,98006.56
2022-11-20T15:03:11.894Z,97992.55
2022-11-20T15:08:15.286Z,97993.42
2022-11-20T15:13:18.671Z,97986.77
2022-11-20T15:18:22.077Z,97978.23
2022-11-20T15:23:25.451Z,97972.09
2022-11-20T15:28:28.835Z,97973.70
2022-11-20T15:33:32.301Z,97970.37
2022-11-20T15:38:35.735Z,97973.29
2022-11-20T15:43:39.613Z,97965.16
2022-11-20T15:48:47.667Z,97971.69
2022-11-20T15:53:51.856Z,97976.36
2022-11-20T15:58:55.296Z,97973.27
2022-11-20T16:03:58.861Z,97969.95
2022-11-20T16:09:04.919Z,97975.09
2022-11-20T16:14:26.332Z,97976.21
2022-11-20T16:19:29.945Z,97968.14
2022-11-20T16:24:33.376Z,97969.02
2022-11-20T16:29:36.786Z,97972.14
2022-11-20T16:34:40.191Z,97972.63
2022-11-20T16:39:43.693Z,97973.65
2022-11-20T16:44:47.095Z,97966.05
2022-11-20T16:49:50.489Z,97955.05
2022-11-20T16:54:53.847Z,97957.60
2022-11-20T17:00:01.893Z,97957.80
2022-11-20T17:05:06.579Z,97959.38
2022-11-20T17:10:10.124Z,97963.16
2022-11-20T17:15:13.558Z,97964.99
2022-11-20T17:20:17.013Z,97968.83
2022-11-20T17:25:20.426Z,97963.23
2022-11-20T17:30:23.828Z,97964.80
2022-11-20T17:35:27.229Z,97952.73
2022-11-20T17:40:30.654Z,97946.90
2022-11-20T17:45:34.053Z,97940.96
2022-11-20T17:50:37.462Z,97933.81
2022-11-20T17:56:00.773Z,97940.36
2022-11-20T18:01:04.290Z,97932.10
2022-11-20T18:06:07.827Z,97922.28
2022-11-20T18:11:11.300Z,97916.24
2022-11-20T18:16:14.713Z,97919.02
2022-11-20T18:21:18.100Z,97914.77
2022-11-20T18:26:21.524Z,97921.69
2022-11-20T18:31:24.924Z,97915.73
2022-11-20T18:36:29.408Z,97922.15
2022-11-20T18:41:50.757Z,97918.46
2022-11-20T18:46:54.111Z,97921.95
2022-11-20T18:51:57.490Z,97925.83
2022-11-20T18:57:00.855Z,97925.60
2022-11-20T19:02:04.303Z,97927.77
2022-11-20T19:07:07.743Z,97917.29
2022-11-20T19:12:11.127Z,97917.08
2022-11-20T19:17:14.567Z,97910.05
2022-11-20T19:22:17.947Z,97910.94
2022-11-20T19:27:21.414Z,97906.71
2022-11-20T19:32:25.344Z,97917.84
2022-11-20T19:37:50.147Z,97926.30
2022-11-20T19:48:44.868Z,97923.25
2022-11-20T19:53:48.422Z,97918.39
2022-11-20T19:58:51.833Z,97918.91
2022-11-20T20:03:55.225Z,97911.02
2022-11-20T20:08:59.162Z,97906.18
2022-11-20T20:14:02.670Z,97904.34
2022-11-20T20:19:06.076Z,97899.09
2022-11-20T20:24:09.566Z,97907.89
2022-11-20T20:29:20.704Z,97911.60
2022-11-20T20:40:15.358Z,97913.45
2022-11-20T20:45:21.101Z,97913.73
2022-11-20T20:50:24.510Z,97906.66
2022-11-20T20:55:28.020Z,97898.56
2022-11-20T21:00:31.505Z,97902.26
2022-11-20T21:05:34.973Z,97912.94
2022-11-20T21:10:38.411Z,97924.48
2022-11-20T21:15:41.812Z,97925.16
2022-11-20T21:21:03.224Z,97919.74
2022-11-20T21:26:06.640Z,97909.08
2022-11-20T21:31:10.088Z,97910.17
2022-11-20T21:36:13.548Z,97914.52
2022-11-20T21:41:16.920Z,97921.08
2022-11-20T21:46:20.298Z,97929.02
2022-11-20T21:51:23.712Z,97926.47
2022-11-20T21:56:27.075Z,97923.80
2022-11-20T22:01:30.608Z,97915.70
2022-11-20T22:06:34.161Z,97915.45
2022-11-20T22:11:37.547Z,97919.14
2022-11-20T22:16:40.919Z,97927.67
2022-11-20T22:21:44.419Z,97935.65
2022-11-20T22:26:48.245Z,97932.91
2022-11-20T22:31:51.603Z,97927.48
2022-11-20T22:36:55.006Z,97934.16
2022-11-20T22:42:10.537Z,97931.33
2022-11-20T22:47:32.257Z,97923.61
2022-11-20T22:52:35.775Z,97919.77
2022-11-20T22:57:39.168Z,97932.14
2022-11-20T23:02:42.563Z,97940.48
2022-11-20T23:07:46.059Z,97947.79
2022-11-20T23:12:49.464Z,97944.59
2022-11-20T23:17:52.875Z,97954.04
2022-11-20T23:22:56.253Z,97953.52
2022-11-20T23:27:59.952Z,97950.35
2022-11-20T23:33:03.354Z,97944.88
2022-11-20T23:38:07.792Z,97938.39
2022-11-20T23:43:17.083Z,97939.98
2022-11-20T23:48:20.455Z,97935.67
2022-11-20T23:53:23.833Z,97925.62
2022-11-20T23:58:27.269Z,97920.29
